createdAt,value
2023-05-14T00:00:55.079Z,14.22
2023-05-14T00:03:41.368Z,14.16
2023-05-14T00:06:25.081Z,14.43
2023-05-14T00:09:08.628Z,14.40
2023-05-14T00:11:52.419Z,14.26
2023-05-14T00:14:36.318Z,14.19
2023-05-14T00:17:20.086Z,14.15
2023-05-14T00:20:07.318Z,14.45
2023-05-14T00:22:50.985Z,14.37
2023-05-14T00:25:34.560Z,14.24
2023-05-14T00:28:18.220Z,14.30
2023-05-14T00:31:01.792Z,14.31
2023-05-14T00:33:45.621Z,14.45
2023-05-14T00:36:29.207Z,14.26
2023-05-14T00:39:14.252Z,14.48
2023-05-14T00:41:57.865Z,14.31
2023-05-14T00:44:41.412Z,14.25
2023-05-14T00:47:25.216Z,14.27
2023-05-14T00:50:10.030Z,14.13
2023-05-14T00:52:54.036Z,14.05
2023-05-14T00:55:42.578Z,13.97
2023-05-14T00:58:26.479Z,13.91
2023-05-14T01:01:10.586Z,13.83
2023-05-14T01:03:57.979Z,13.86
2023-05-14T01:07:07.401Z,13.72
2023-05-14T01:10:20.188Z,13.86
2023-05-14T01:13:21.189Z,14.00
2023-05-14T01:16:07.429Z,13.99
2023-05-14T01:18:52.728Z,13.80
2023-05-14T01:21:38.545Z,13.64
2023-05-14T01:24:22.092Z,13.62
2023-05-14T01:27:29.868Z,13.60
2023-05-14T01:30:32.140Z,13.45
2023-05-14T01:33:19.800Z,13.38
2023-05-14T01:36:05.829Z,13.45
2023-05-14T01:38:51.372Z,13.62
2023-05-14T01:41:39.489Z,13.66
2023-05-14T01:44:23.384Z,13.62
2023-05-14T01:47:06.981Z,13.62
2023-05-14T01:49:50.886Z,13.79
2023-05-14T01:52:34.454Z,13.82
2023-05-14T01:55:18.531Z,13.81
2023-05-14T01:58:02.303Z,13.68
2023-05-14T02:00:45.860Z,13.86
2023-05-14T02:03:29.477Z,13.60
2023-05-14T02:06:13.258Z,13.63
2023-05-14T02:08:56.966Z,13.72
2023-05-14T02:11:40.771Z,13.83
2023-05-14T02:14:24.321Z,14.02
2023-05-14T02:17:08.103Z,13.79
2023-05-14T02:19:51.838Z,13.81
2023-05-14T02:22:36.206Z,13.78
2023-05-14T02:25:20.100Z,13.76
2023-05-14T02:28:04.802Z,13.60
2023-05-14T02:30:48.362Z,13.75
2023-05-14T02:33:32.057Z,13.96
2023-05-14T02:36:15.825Z,14.02
2023-05-14T02:39:00.407Z,13.93
2023-05-14T02:41:43.985Z,13.86
2023-05-14T02:44:27.613Z,13.92
2023-05-14T02:47:11.317Z,14.06
2023-05-14T02:49:54.951Z,14.09
2023-05-14T02:52:38.621Z,14.11
2023-05-14T02:55:22.861Z,13.90
2023-05-14T02:58:06.523Z,13.83
2023-05-14T03:00:50.093Z,13.97
2023-05-14T03:03:34.571Z,14.01
2023-05-14T03:06:18.513Z,13.96
2023-05-14T03:09:02.039Z,13.92
2023-05-14T03:11:46.061Z,13.75
2023-05-14T03:14:29.740Z,13.77
2023-05-14T03:17:13.315Z,13.89
2023-05-14T03:19:56.912Z,13.80
2023-05-14T03:22:40.932Z,13.95
2023-05-14T03:25:24.909Z,13.75
2023-05-14T03:28:08.416Z,13.79
2023-05-14T03:30:52.034Z,13.80
2023-05-14T03:33:35.956Z,13.68
2023-05-14T03:36:19.622Z,13.64
2023-05-14T03:39:06.924Z,13.61
2023-05-14T03:41:52.496Z,13.56
2023-05-14T03:44:36.225Z,13.50
2023-05-14T03:47:20.412Z,13.65
2023-05-14T03:50:04.382Z,13.51
2023-05-14T03:52:48.108Z,13.45
2023-05-14T03:55:31.638Z,13.28
2023-05-14T03:58:15.348Z,13.16
2023-05-14T04:00:58.973Z,13.20
2023-05-14T04:03:42.755Z,13.27
2023-05-14T04:06:27.082Z,13.30
2023-05-14T04:09:12.067Z,13.22
2023-05-14T04:11:55.636Z,13.42
2023-05-14T04:14:39.184Z,13.26
2023-05-14T04:17:22.712Z,13.30
2023-05-14T04:20:07.506Z,13.28
2023-05-14T04:22:51.068Z,13.21
2023-05-14T04:25:34.597Z,13.18
2023-05-14T04:28:18.152Z,13.13
2023-05-14T04:31:01.694Z,13.35
2023-05-14T04:33:45.323Z,13.46
2023-05-14T04:36:28.964Z,13.52
2023-05-14T04:39:12.694Z,13.57
2023-05-14T04:41:56.255Z,13.57
2023-05-14T04:44:39.778Z,13.60
2023-05-14T04:47:23.438Z,13.68
2023-05-14T04:50:09.306Z,13.65
2023-05-14T04:52:52.831Z,13.76
2023-05-14T04:55:36.447Z,13.66
2023-05-14T04:58:20.000Z,13.55
2023-05-14T05:01:06.034Z,13.68
2023-05-14T05:03:49.714Z,13.71
2023-05-14T05:06:33.274Z,13.86
2023-05-14T05:09:18.224Z,14.09
2023-05-14T05:12:02.097Z,14.02
2023-05-14T05:14:45.629Z,14.05
2023-05-14T05:17:29.806Z,14.28
2023-05-14T05:20:15.907Z,14.38
2023-05-14T05:22:59.670Z,14.44
2023-05-14T05:25:43.207Z,14.52
2023-05-14T05:28:26.744Z,14.61
2023-05-14T05:31:10.506Z,14.69
2023-05-14T05:33:54.028Z,14.72
2023-05-14T05:36:37.567Z,14.97
2023-05-14T05:39:21.137Z,15.13
2023-05-14T05:42:06.046Z,15.15
2023-05-14T05:44:49.557Z,15.24
2023-05-14T05:47:35.605Z,15.44
2023-05-14T05:50:19.975Z,15.37
2023-05-14T05:53:04.237Z,15.49
2023-05-14T05:55:47.801Z,15.57
2023-05-14T05:58:31.302Z,15.87
2023-05-14T06:01:14.915Z,15.92
2023-05-14T06:03:58.766Z,15.92
2023-05-14T06:06:42.563Z,16.17
2023-05-14T06:09:26.071Z,15.92
2023-05-14T06:12:09.699Z,16.17
2023-05-14T06:14:55.816Z,16.24
2023-05-14T06:17:39.430Z,16.39
2023-05-14T06:20:23.176Z,16.24
2023-05-14T06:23:08.051Z,16.52
2023-05-14T06:25:51.653Z,16.61
2023-05-14T06:28:35.381Z,16.76
2023-05-14T06:31:19.242Z,16.92
2023-05-14T06:34:02.820Z,16.83
2023-05-14T06:36:46.398Z,17.11
2023-05-14T06:39:29.974Z,16.88
2023-05-14T06:42:13.531Z,17.28
2023-05-14T06:44:57.082Z,17.36
2023-05-14T06:47:41.455Z,17.41
2023-05-14T06:50:25.685Z,17.48
2023-05-14T06:53:09.375Z,17.47
2023-05-14T06:55:52.883Z,17.51
2023-05-14T06:58:36.412Z,17.79
2023-05-14T07:01:19.977Z,17.74
2023-05-14T07:04:03.645Z,18.10
2023-05-14T07:06:47.280Z,18.04
2023-05-14T07:09:30.763Z,18.26
2023-05-14T07:12:14.311Z,18.20
2023-05-14T07:14:57.849Z,18.25
2023-05-14T07:17:41.718Z,18.63
2023-05-14T07:20:25.614Z,18.54
2023-05-14T07:23:09.321Z,18.84
2023-05-14T07:25:52.880Z,18.84
2023-05-14T07:28:36.462Z,19.04
2023-05-14T07:31:20.229Z,19.21
2023-05-14T07:34:03.878Z,19.24
2023-05-14T07:36:47.804Z,19.43
2023-05-14T07:39:31.407Z,19.52
2023-05-14T07:42:24.704Z,19.59
2023-05-14T07:45:15.814Z,19.69
2023-05-14T07:47:59.547Z,19.83
2023-05-14T07:50:43.568Z,19.95
2023-05-14T07:53:27.131Z,19.93
2023-05-14T07:56:10.756Z,20.19
2023-05-14T07:58:54.286Z,20.11
2023-05-14T08:01:39.305Z,20.17
2023-05-14T08:04:23.610Z,20.52
2023-05-14T08:07:08.718Z,20.73
2023-05-14T08:09:52.259Z,21.03
2023-05-14T08:12:35.823Z,20.88
2023-05-14T08:15:19.391Z,20.57
2023-05-14T08:18:03.880Z,20.57
2023-05-14T08:20:47.530Z,21.50
2023-05-14T08:23:31.047Z,21.90
2023-05-14T08:26:14.633Z,21.69
2023-05-14T08:29:00.597Z,22.01
2023-05-14T08:31:44.354Z,21.64
2023-05-14T08:34:28.802Z,22.14
2023-05-14T08:37:12.408Z,21.81
2023-05-14T08:39:56.450Z,22.23
2023-05-14T08:42:45.131Z,22.52
2023-05-14T08:45:34.544Z,22.39
2023-05-14T08:48:21.663Z,22.51
2023-05-14T08:51:05.648Z,23.47
2023-05-14T08:53:49.313Z,23.83
2023-05-14T08:56:34.083Z,23.16
2023-05-14T08:59:17.924Z,23.07
2023-05-14T09:02:05.278Z,23.88
2023-05-14T09:04:57.554Z,24.17
2023-05-14T09:07:41.729Z,23.92
2023-05-14T09:10:28.004Z,24.46
2023-05-14T09:13:11.666Z,23.78
2023-05-14T09:15:56.496Z,24.54
2023-05-14T09:18:45.469Z,24.56
2023-05-14T09:21:31.013Z,25.03
2023-05-14T09:24:25.913Z,24.51
2023-05-14T09:27:15.952Z,24.02
2023-05-14T09:30:12.477Z,24.47
2023-05-14T09:32:56.562Z,23.85
2023-05-14T09:35:43.550Z,24.21
2023-05-14T09:38:35.745Z,24.98
2023-05-14T09:41:21.057Z,25.28
2023-05-14T09:44:06.688Z,25.86
2023-05-14T09:46:51.481Z,25.55
2023-05-14T09:49:37.179Z,24.73
2023-05-14T09:52:21.398Z,24.19
2023-05-14T09:55:06.724Z,24.22
2023-05-14T09:57:50.428Z,24.93
2023-05-14T10:00:35.275Z,24.94
2023-05-14T10:03:22.685Z,26.05
2023-05-14T10:06:08.004Z,25.23
2023-05-14T10:09:02.101Z,24.63
2023-05-14T10:11:55.239Z,24.11
2023-05-14T10:14:50.377Z,24.56
2023-05-14T10:17:45.898Z,23.96
2023-05-14T10:20:31.183Z,24.03
2023-05-14T10:23:15.204Z,23.66
2023-05-14T10:26:00.612Z,23.37
2023-05-14T10:28:44.696Z,23.32
2023-05-14T10:31:55.582Z,23.13
2023-05-14T10:34:44.459Z,23.07
2023-05-14T10:37:28.454Z,23.50
2023-05-14T10:40:14.267Z,23.39
2023-05-14T10:43:00.006Z,23.24
2023-05-14T10:45:46.758Z,23.98
2023-05-14T10:48:31.214Z,24.07
2023-05-14T10:51:17.640Z,23.48
2023-05-14T10:54:01.832Z,23.10
2023-05-14T10:56:49.198Z,23.17
2023-05-14T10:59:34.738Z,23.24
2023-05-14T11:02:27.457Z,23.03
2023-05-14T11:05:17.814Z,22.47
2023-05-14T11:08:07.967Z,22.53
2023-05-14T11:10:52.425Z,22.61
2023-05-14T11:13:36.442Z,22.88
2023-05-14T11:16:24.110Z,22.95
2023-05-14T11:19:07.940Z,22.83
2023-05-14T11:21:51.615Z,23.08
2023-05-14T11:24:35.145Z,23.08
2023-05-14T11:27:20.855Z,23.13
2023-05-14T11:30:05.168Z,22.16
2023-05-14T11:32:51.471Z,22.36
2023-05-14T11:35:36.914Z,22.27
2023-05-14T11:38:21.497Z,22.41
2023-05-14T11:41:05.891Z,22.50
2023-05-14T11:43:49.514Z,22.16
2023-05-14T11:46:33.129Z,22.06
2023-05-14T11:49:16.640Z,22.36
2023-05-14T11:52:02.406Z,22.88
2023-05-14T11:54:46.262Z,22.69
2023-05-14T11:57:31.665Z,22.33
2023-05-14T12:00:21.767Z,22.97
2023-05-14T12:03:06.650Z,22.63
2023-05-14T12:05:56.177Z,22.95
2023-05-14T12:08:39.746Z,23.30
2023-05-14T12:11:23.297Z,23.54
2023-05-14T12:14:23.196Z,23.82
2023-05-14T12:17:28.035Z,23.62
2023-05-14T12:20:12.597Z,23.63
2023-05-14T12:22:56.156Z,23.71
2023-05-14T12:25:39.726Z,23.45
2023-05-14T12:28:23.903Z,23.80
2023-05-14T12:31:07.473Z,23.12
2023-05-14T12:33:50.993Z,24.48
2023-05-14T12:36:34.569Z,23.94
2023-05-14T12:39:18.282Z,24.43
2023-05-14T12:42:02.469Z,24.54
2023-05-14T12:44:45.980Z,23.67
2023-05-14T12:47:29.767Z,23.27
2023-05-14T12:50:14.428Z,23.51
2023-05-14T12:52:58.024Z,23.12
2023-05-14T12:55:41.581Z,22.77
2023-05-14T12:58:25.302Z,22.87
2023-05-14T13:01:08.980Z,22.23
2023-05-14T13:03:52.717Z,22.74
2023-05-14T13:06:37.104Z,22.71
2023-05-14T13:09:20.780Z,23.22
2023-05-14T13:12:04.849Z,23.73
2023-05-14T13:14:48.481Z,23.74
2023-05-14T13:17:37.813Z,23.27
2023-05-14T13:20:23.793Z,23.12
2023-05-14T13:23:08.040Z,23.08
2023-05-14T13:25:51.854Z,22.88
2023-05-14T13:28:35.729Z,22.72
2023-05-14T13:31:19.652Z,22.58
2023-05-14T13:34:03.613Z,22.29
2023-05-14T13:36:49.563Z,22.65
2023-05-14T13:39:33.576Z,22.84
2023-05-14T13:42:17.658Z,22.79
2023-05-14T13:45:01.740Z,22.70
2023-05-14T13:47:45.772Z,22.63
2023-05-14T13:50:29.769Z,22.53
2023-05-14T13:53:13.796Z,22.11
2023-05-14T13:55:58.620Z,22.53
2023-05-14T13:58:42.270Z,22.78
2023-05-14T14:01:33.726Z,22.34
2023-05-14T14:04:20.208Z,22.36
2023-05-14T14:07:04.297Z,22.66
2023-05-14T14:09:48.043Z,22.49
2023-05-14T14:12:31.671Z,22.77
2023-05-14T14:15:16.226Z,22.95
2023-05-14T14:17:59.874Z,23.05
2023-05-14T14:20:43.976Z,23.52
2023-05-14T14:23:30.045Z,23.50
2023-05-14T14:26:13.974Z,22.47
2023-05-14T14:28:57.668Z,22.85
2023-05-14T14:31:44.098Z,22.92
2023-05-14T14:34:28.427Z,23.13
2023-05-14T14:37:12.403Z,23.11
2023-05-14T14:39:56.297Z,23.07
2023-05-14T14:42:40.510Z,23.56
2023-05-14T14:45:24.659Z,23.47
2023-05-14T14:48:26.973Z,23.79
2023-05-14T14:51:10.615Z,23.45
2023-05-14T14:53:54.355Z,23.82
2023-05-14T14:56:38.114Z,23.91
2023-05-14T14:59:23.238Z,23.76
2023-05-14T15:02:09.723Z,24.05
2023-05-14T15:04:54.933Z,23.74
2023-05-14T15:07:39.650Z,23.71
2023-05-14T15:10:24.692Z,23.51
2023-05-14T15:13:09.503Z,23.52
2023-05-14T15:15:53.980Z,23.68
2023-05-14T15:18:37.915Z,23.55
2023-05-14T15:21:22.247Z,23.94
2023-05-14T15:24:06.310Z,23.78
2023-05-14T15:26:51.012Z,23.30
2023-05-14T15:29:36.328Z,23.42
2023-05-14T15:32:20.122Z,23.35
2023-05-14T15:35:04.097Z,23.01
2023-05-14T15:37:47.632Z,23.42
2023-05-14T15:40:31.248Z,23.11
2023-05-14T15:43:14.769Z,23.35
2023-05-14T15:46:01.890Z,23.17
2023-05-14T15:48:48.446Z,23.36
2023-05-14T15:51:39.332Z,23.09
2023-05-14T15:54:22.799Z,22.93
2023-05-14T15:57:06.487Z,22.86
2023-05-14T15:59:57.448Z,22.74
2023-05-14T16:02:48.772Z,22.54
2023-05-14T16:05:32.542Z,23.06
2023-05-14T16:08:16.058Z,22.76
2023-05-14T16:11:01.056Z,23.00
2023-05-14T16:13:47.107Z,23.23
2023-05-14T16:16:31.810Z,23.15
2023-05-14T16:19:16.903Z,23.41
2023-05-14T16:22:01.159Z,23.40
2023-05-14T16:25:17.597Z,23.06
2023-05-14T16:28:01.793Z,23.63
2023-05-14T16:30:48.575Z,23.76
2023-05-14T16:33:35.224Z,23.89
2023-05-14T16:36:20.585Z,23.83
2023-05-14T16:39:08.129Z,23.90
2023-05-14T16:41:55.520Z,24.14
2023-05-14T16:44:39.489Z,24.23
2023-05-14T16:47:39.904Z,24.35
2023-05-14T16:50:23.768Z,24.41
2023-05-14T16:53:08.206Z,24.19
2023-05-14T16:56:10.536Z,23.52
2023-05-14T16:58:55.288Z,22.92
2023-05-14T17:01:41.736Z,22.46
2023-05-14T17:04:27.016Z,22.66
2023-05-14T17:07:12.053Z,22.44
2023-05-14T17:09:56.186Z,22.54
2023-05-14T17:12:40.201Z,22.74
2023-05-14T17:15:24.235Z,22.85
2023-05-14T17:18:08.769Z,22.72
2023-05-14T17:20:52.780Z,22.81
2023-05-14T17:23:36.597Z,22.69
2023-05-14T17:26:20.422Z,22.44
2023-05-14T17:29:04.377Z,22.38
2023-05-14T17:31:48.979Z,22.45
2023-05-14T17:34:32.797Z,22.38
2023-05-14T17:37:16.585Z,22.59
2023-05-14T17:40:00.153Z,22.52
2023-05-14T17:42:45.541Z,22.77
2023-05-14T17:45:36.469Z,22.44
2023-05-14T17:48:26.563Z,22.75
2023-05-14T17:51:10.120Z,22.07
2023-05-14T17:53:53.723Z,22.14
2023-05-14T17:56:37.677Z,21.94
2023-05-14T17:59:24.134Z,21.62
2023-05-14T18:02:08.033Z,22.02
2023-05-14T18:04:51.558Z,21.78
2023-05-14T18:07:36.412Z,21.94
2023-05-14T18:10:19.973Z,21.92
2023-05-14T18:13:03.815Z,22.04
2023-05-14T18:15:47.496Z,21.75
2023-05-14T18:18:31.757Z,21.84
2023-05-14T18:21:15.428Z,21.75
2023-05-14T18:23:58.997Z,21.89
2023-05-14T18:26:42.779Z,21.72
2023-05-14T18:29:32.165Z,21.25
2023-05-14T18:32:19.116Z,20.94
2023-05-14T18:35:03.851Z,20.76
2023-05-14T18:37:49.112Z,20.36
2023-05-14T18:40:32.629Z,20.25
2023-05-14T18:43:18.502Z,19.96
2023-05-14T18:46:02.181Z,19.87
2023-05-14T18:48:45.870Z,19.77
2023-05-14T18:51:29.765Z,19.76
2023-05-14T18:54:13.324Z,19.77
2023-05-14T18:56:57.007Z,19.64
2023-05-14T18:59:40.625Z,19.59
2023-05-14T19:02:24.202Z,19.53
2023-05-14T19:05:08.457Z,19.47
2023-05-14T19:07:52.215Z,19.26
2023-05-14T19:10:35.871Z,19.27
2023-05-14T19:13:19.551Z,19.47
2023-05-14T19:16:03.112Z,19.06
2023-05-14T19:18:46.760Z,18.97
2023-05-14T19:21:30.308Z,18.81
2023-05-14T19:24:13.968Z,18.64
2023-05-14T19:26:57.935Z,18.54
2023-05-14T19:29:41.795Z,18.42
2023-05-14T19:32:25.662Z,18.31
2023-05-14T19:35:10.064Z,18.24
2023-05-14T19:37:53.766Z,18.33
2023-05-14T19:40:37.669Z,18.23
2023-05-14T19:43:21.486Z,18.07
2023-05-14T19:46:06.492Z,18.01
2023-05-14T19:48:50.145Z,17.89
2023-05-14T19:51:33.922Z,17.81
2023-05-14T19:54:17.570Z,17.87
2023-05-14T19:57:01.207Z,17.83
2023-05-14T19:59:45.551Z,17.75
2023-05-14T20:02:29.639Z,17.41
2023-05-14T20:05:14.071Z,17.29
2023-05-14T20:07:57.675Z,17.22
2023-05-14T20:10:41.695Z,17.21
2023-05-14T20:13:25.423Z,17.38
2023-05-14T20:16:09.175Z,17.20
2023-05-14T20:18:54.151Z,17.18
2023-05-14T20:21:37.774Z,17.23
2023-05-14T20:24:21.356Z,17.22
2023-05-14T20:27:05.380Z,17.10
2023-05-14T20:29:51.411Z,16.87
2023-05-14T20:32:35.536Z,16.84
2023-05-14T20:35:19.180Z,16.75
2023-05-14T20:38:03.851Z,16.96
2023-05-14T20:40:48.200Z,16.76
2023-05-14T20:43:31.816Z,16.76
2023-05-14T20:46:15.388Z,16.59
2023-05-14T20:49:02.195Z,16.79
2023-05-14T20:51:45.878Z,16.40
